sensor_id;sensor_type;location;lat;lon;timestamp;temperature;humidity
13251;DHT22;6692;50.710;7.180;2024-02-23T00:01:34;7.20;99.90
13251;DHT22;6692;50.710;7.180;2024-02-23T00:03:36;7.20;99.90
13251;DHT22;6692;50.710;7.180;2024-02-23T00:05:36;7.20;99.90
13251;DHT22;6692;50.710;7.180;2024-02-23T00:07:37;7.20;99.90
13251;DHT22;6692;50.710;7.180;2024-02-23T00:09:38;7.10;99.90
13251;DHT22;6692;50.710;7.180;2024-02-23T00:11:40;7.00;99.90
13251;DHT22;6692;50.710;7.180;2024-02-23T00:13:41;6.90;99.90
13251;DHT22;6692;50.710;7.180;2024-02-23T00:15:42;6.90;99.90
13251;DHT22;6692;50.710;7.180;2024-02-23T00:17:42;6.80;99.90
13251;DHT22;6692;50.710;7.180;2024-02-23T00:19:45;6.80;99.90
13251;DHT22;6692;50.710;7.180;2024-02-23T00:21:44;6.70;99.90
13251;DHT22;6692;50.710;7.180;2024-02-23T00:23:45;6.70;99.90
13251;DHT22;6692;50.710;7.180;2024-02-23T00:25:46;6.70;99.90
13251;DHT22;6692;50.710;7.180;2024-02-23T00:27:47;6.60;99.90
13251;DHT22;6692;50.710;7.180;2024-02-23T00:29:48;6.60;99.90
13251;DHT22;6692;50.710;7.180;2024-02-23T00:31:49;6.50;99.90
13251;DHT22;6692;50.710;7.180;2024-02-23T00:33:49;6.50;99.90
13251;DHT22;6692;50.710;7.180;2024-02-23T00:35:50;6.40;99.90
13251;DHT22;6692;50.710;7.180;2024-02-23T00:37:52;6.40;99.90
13251;DHT22;6692;50.710;7.180;2024-02-23T00:39:52;6.40;99.90
13251;DHT22;6692;50.710;7.180;2024-02-23T00:41:53;6.40;99.90
13251;DHT22;6692;50.710;7.180;2024-02-23T00:43:54;6.20;99.90
13251;DHT22;6692;50.710;7.180;2024-02-23T00:45:56;6.20;99.90
13251;DHT22;6692;50.710;7.180;2024-02-23T00:47:57;6.20;99.90
13251;DHT22;6692;50.710;7.180;2024-02-23T00:49:58;6.20;99.90
13251;DHT22;6692;50.710;7.180;2024-02-23T00:51:59;6.10;99.90
13251;DHT22;6692;50.710;7.180;2024-02-23T00:54:00;6.10;99.90
13251;DHT22;6692;50.710;7.180;2024-02-23T00:56:02;6.10;99.90
13251;DHT22;6692;50.710;7.180;2024-02-23T00:58:03;6.10;99.90
13251;DHT22;6692;50.710;7.180;2024-02-23T01:00:04;6.10;99.90
13251;DHT22;6692;50.710;7.180;2024-02-23T01:02:07;6.10;99.90
13251;DHT22;6692;50.710;7.180;2024-02-23T01:04:07;6.10;99.90
13251;DHT22;6692;50.710;7.180;2024-02-23T01:06:08;6.10;99.90
13251;DHT22;6692;50.710;7.180;2024-02-23T01:08:09;6.00;99.90
13251;DHT22;6692;50.710;7.180;2024-02-23T01:10:09;6.00;99.90
13251;DHT22;6692;50.710;7.180;2024-02-23T01:12:10;6.00;99.90
13251;DHT22;6692;50.710;7.180;2024-02-23T01:14:11;6.00;99.90
13251;DHT22;6692;50.710;7.180;2024-02-23T01:16:12;6.00;99.90
13251;DHT22;6692;50.710;7.180;2024-02-23T01:18:12;6.00;99.90
13251;DHT22;6692;50.710;7.180;2024-02-23T01:20:14;6.00;99.90
13251;DHT22;6692;50.710;7.180;2024-02-23T01:22:14;6.00;99.90
13251;DHT22;6692;50.710;7.180;2024-02-23T01:24:15;6.00;99.90
13251;DHT22;6692;50.710;7.180;2024-02-23T01:26:16;5.90;99.90
13251;DHT22;6692;50.710;7.180;2024-02-23T01:28:16;5.90;99.90
13251;DHT22;6692;50.710;7.180;2024-02-23T01:30:18;5.90;99.90
13251;DHT22;6692;50.710;7.180;2024-02-23T01:32:19;5.90;99.90
13251;DHT22;6692;50.710;7.180;2024-02-23T01:34:20;5.80;99.90
13251;DHT22;6692;50.710;7.180;2024-02-23T01:36:21;5.80;99.90
13251;DHT22;6692;50.710;7.180;2024-02-23T01:38:22;5.80;99.90
13251;DHT22;6692;50.710;7.180;2024-02-23T01:40:23;5.90;99.90
13251;DHT22;6692;50.710;7.180;2024-02-23T01:42:24;5.80;99.90
13251;DHT22;6692;50.710;7.180;2024-02-23T01:44:25;5.80;99.90
13251;DHT22;6692;50.710;7.180;2024-02-23T01:46:26;5.80;99.90
13251;DHT22;6692;50.710;7.180;2024-02-23T01:48:26;5.80;99.90
13251;DHT22;6692;50.710;7.180;2024-02-23T01:50:28;5.80;99.90
13251;DHT22;6692;50.710;7.180;2024-02-23T01:52:28;5.70;99.90
13251;DHT22;6692;50.710;7.180;2024-02-23T01:54:29;5.70;99.90
13251;DHT22;6692;50.710;7.180;2024-02-23T01:56:30;5.70;99.90
13251;DHT22;6692;50.710;7.180;2024-02-23T01:58:31;5.70;99.90
13251;DHT22;6692;50.710;7.180;2024-02-23T02:00:32;5.70;99.90
13251;DHT22;6692;50.710;7.180;2024-02-23T02:02:32;5.70;99.90
13251;DHT22;6692;50.710;7.180;2024-02-23T02:04:38;5.70;99.90
13251;DHT22;6692;50.710;7.180;2024-02-23T02:06:40;5.80;99.90
13251;DHT22;6692;50.710;7.180;2024-02-23T02:08:40;5.70;99.90
13251;DHT22;6692;50.710;7.180;2024-02-23T02:10:42;5.80;99.90
13251;DHT22;6692;50.710;7.180;2024-02-23T02:12:43;5.80;99.90
13251;DHT22;6692;50.710;7.180;2024-02-23T02:14:44;5.80;99.90
13251;DHT22;6692;50.710;7.180;2024-02-23T02:16:45;5.80;99.90
13251;DHT22;6692;50.710;7.180;2024-02-23T02:18:46;5.80;99.90
13251;DHT22;6692;50.710;7.180;2024-02-23T02:20:52;5.80;99.90
13251;DHT22;6692;50.710;7.180;2024-02-23T02:22:51;5.70;99.90
13251;DHT22;6692;50.710;7.180;2024-02-23T02:24:52;5.80;99.90
13251;DHT22;6692;50.710;7.180;2024-02-23T02:26:52;5.70;99.90
13251;DHT22;6692;50.710;7.180;2024-02-23T02:28:54;5.70;99.90
13251;DHT22;6692;50.710;7.180;2024-02-23T02:30:55;5.70;99.90
13251;DHT22;6692;50.710;7.180;2024-02-23T02:32:55;5.70;99.90
13251;DHT22;6692;50.710;7.180;2024-02-23T02:34:56;5.70;99.90
13251;DHT22;6692;50.710;7.180;2024-02-23T02:36:57;5.70;99.90
13251;DHT22;6692;50.710;7.180;2024-02-23T02:38:58;5.70;99.90
13251;DHT22;6692;50.710;7.180;2024-02-23T02:40:59;5.70;99.90
13251;DHT22;6692;50.710;7.180;2024-02-23T02:43:00;5.70;99.90
13251;DHT22;6692;50.710;7.180;2024-02-23T02:45:01;5.70;99.90
13251;DHT22;6692;50.710;7.180;2024-02-23T02:47:01;5.70;99.90
13251;DHT22;6692;50.710;7.180;2024-02-23T02:49:02;5.70;99.90
13251;DHT22;6692;50.710;7.180;2024-02-23T02:51:03;5.70;99.90
13251;DHT22;6692;50.710;7.180;2024-02-23T02:53:04;5.70;99.90
13251;DHT22;6692;50.710;7.180;2024-02-23T02:55:05;5.70;99.90
13251;DHT22;6692;50.710;7.180;2024-02-23T02:57:06;5.60;99.90
13251;DHT22;6692;50.710;7.180;2024-02-23T02:59:07;5.60;99.90
13251;DHT22;6692;50.710;7.180;2024-02-23T03:01:09;5.60;99.90
13251;DHT22;6692;50.710;7.180;2024-02-23T03:03:10;5.60;99.90
13251;DHT22;6692;50.710;7.180;2024-02-23T03:05:10;5.60;99.90
13251;DHT22;6692;50.710;7.180;2024-02-23T03:07:11;5.60;99.90
13251;DHT22;6692;50.710;7.180;2024-02-23T03:09:12;5.60;99.90
13251;DHT22;6692;50.710;7.180;2024-02-23T03:11:13;5.60;99.90
13251;DHT22;6692;50.710;7.180;2024-02-23T03:13:15;5.60;99.90
13251;DHT22;6692;50.710;7.180;2024-02-23T03:15:15;5.60;99.90
13251;DHT22;6692;50.710;7.180;2024-02-23T03:17:16;5.60;99.90
13251;DHT22;6692;50.710;7.180;2024-02-23T03:19:17;5.60;99.90
13251;DHT22;6692;50.710;7.180;2024-02-23T03:21:18;5.60;99.90
13251;DHT22;6692;50.710;7.180;2024-02-23T03:23:18;5.60;99.90
13251;DHT22;6692;50.710;7.180;2024-02-23T03:25:19;5.60;99.90
13251;DHT22;6692;50.710;7.180;2024-02-23T03:27:20;5.60;99.90
13251;DHT22;6692;50.710;7.180;2024-02-23T03:29:20;5.50;99.90
13251;DHT22;6692;50.710;7.180;2024-02-23T03:31:21;5.50;99.90
13251;DHT22;6692;50.710;7.180;2024-02-23T03:33:22;5.50;99.90
13251;DHT22;6692;50.710;7.180;2024-02-23T03:35:22;5.50;99.90
13251;DHT22;6692;50.710;7.180;2024-02-23T03:37:23;5.60;99.90
13251;DHT22;6692;50.710;7.180;2024-02-23T03:39:24;5.50;99.90
13251;DHT22;6692;50.710;7.180;2024-02-23T03:41:24;5.60;99.90
13251;DHT22;6692;50.710;7.180;2024-02-23T03:43:25;5.60;99.90
13251;DHT22;6692;50.710;7.180;2024-02-23T03:45:26;5.50;99.90
13251;DHT22;6692;50.710;7.180;2024-02-23T03:47:26;5.50;99.90
13251;DHT22;6692;50.710;7.180;2024-02-23T03:49:28;5.60;99.90
13251;DHT22;6692;50.710;7.180;2024-02-23T03:51:29;5.60;99.90
13251;DHT22;6692;50.710;7.180;2024-02-23T03:53:29;5.60;99.90
13251;DHT22;6692;50.710;7.180;2024-02-23T03:55:30;5.60;99.90
13251;DHT22;6692;50.710;7.180;2024-02-23T03:57:31;5.60;99.90
13251;DHT22;6692;50.710;7.180;2024-02-23T03:59:32;5.50;99.90
13251;DHT22;6692;50.710;7.180;2024-02-23T04:01:32;5.50;99.90
13251;DHT22;6692;50.710;7.180;2024-02-23T04:03:33;5.50;99.90
13251;DHT22;6692;50.710;7.180;2024-02-23T04:05:34;5.50;99.90
13251;DHT22;6692;50.710;7.180;2024-02-23T04:07:34;5.50;99.90
13251;DHT22;6692;50.710;7.180;2024-02-23T04:09:35;5.50;99.90
13251;DHT22;6692;50.710;7.180;2024-02-23T04:11:36;5.60;99.90
13251;DHT22;6692;50.710;7.180;2024-02-23T04:13:36;5.50;99.90
13251;DHT22;6692;50.710;7.180;2024-02-23T04:15:37;5.50;99.90
13251;DHT22;6692;50.710;7.180;2024-02-23T04:17:38;5.50;99.90
13251;DHT22;6692;50.710;7.180;2024-02-23T04:19:40;5.60;99.90
13251;DHT22;6692;50.710;7.180;2024-02-23T04:21:39;5.50;99.90
13251;DHT22;6692;50.710;7.180;2024-02-23T04:23:40;5.50;99.90
13251;DHT22;6692;50.710;7.180;2024-02-23T04:25:41;5.50;99.90
13251;DHT22;6692;50.710;7.180;2024-02-23T04:27:42;5.50;99.90
13251;DHT22;6692;50.710;7.180;2024-02-23T04:29:42;5.50;99.90
13251;DHT22;6692;50.710;7.180;2024-02-23T04:31:43;5.50;99.90
13251;DHT22;6692;50.710;7.180;2024-02-23T04:33:44;5.40;99.90
13251;DHT22;6692;50.710;7.180;2024-02-23T04:35:45;5.40;99.90
13251;DHT22;6692;50.710;7.180;2024-02-23T04:37:46;5.40;99.90
13251;DHT22;6692;50.710;7.180;2024-02-23T04:39:47;5.40;99.90
13251;DHT22;6692;50.710;7.180;2024-02-23T04:41:47;5.30;99.90
13251;DHT22;6692;50.710;7.180;2024-02-23T04:43:48;5.30;99.90
13251;DHT22;6692;50.710;7.180;2024-02-23T04:45:49;5.30;99.90
13251;DHT22;6692;50.710;7.180;2024-02-23T04:47:49;5.30;99.90
13251;DHT22;6692;50.710;7.180;2024-02-23T04:49:50;5.30;99.90
13251;DHT22;6692;50.710;7.180;2024-02-23T04:51:52;5.30;99.90
13251;DHT22;6692;50.710;7.180;2024-02-23T04:53:52;5.30;99.90
13251;DHT22;6692;50.710;7.180;2024-02-23T04:55:54;5.30;99.90
13251;DHT22;6692;50.710;7.180;2024-02-23T04:57:54;5.30;99.90
13251;DHT22;6692;50.710;7.180;2024-02-23T04:59:55;5.40;99.90
13251;DHT22;6692;50.710;7.180;2024-02-23T05:01:56;5.40;99.90
13251;DHT22;6692;50.710;7.180;2024-02-23T05:03:57;5.40;99.90
13251;DHT22;6692;50.710;7.180;2024-02-23T05:05:57;5.40;99.90
13251;DHT22;6692;50.710;7.180;2024-02-23T05:07:58;5.30;99.90
13251;DHT22;6692;50.710;7.180;2024-02-23T05:09:59;5.40;99.90
13251;DHT22;6692;50.710;7.180;2024-02-23T05:12:00;5.40;99.90
13251;DHT22;6692;50.710;7.180;2024-02-23T05:14:01;5.40;99.90
13251;DHT22;6692;50.710;7.180;2024-02-23T05:16:03;5.40;99.90
13251;DHT22;6692;50.710;7.180;2024-02-23T05:18:05;5.40;99.90
13251;DHT22;6692;50.710;7.180;2024-02-23T05:20:07;5.40;99.90
13251;DHT22;6692;50.710;7.180;2024-02-23T05:22:08;5.40;99.90
13251;DHT22;6692;50.710;7.180;2024-02-23T05:24:10;5.40;99.90
13251;DHT22;6692;50.710;7.180;2024-02-23T05:26:09;5.40;99.90
13251;DHT22;6692;50.710;7.180;2024-02-23T05:28:10;5.50;99.90
13251;DHT22;6692;50.710;7.180;2024-02-23T05:30:12;5.40;99.90
13251;DHT22;6692;50.710;7.180;2024-02-23T05:32:13;5.40;99.90
13251;DHT22;6692;50.710;7.180;2024-02-23T05:34:14;5.40;99.90
13251;DHT22;6692;50.710;7.180;2024-02-23T05:36:15;5.40;99.90
13251;DHT22;6692;50.710;7.180;2024-02-23T05:38:15;5.40;99.90
13251;DHT22;6692;50.710;7.180;2024-02-23T05:40:16;5.40;99.90
13251;DHT22;6692;50.710;7.180;2024-02-23T05:42:17;5.30;99.90
13251;DHT22;6692;50.710;7.180;2024-02-23T05:44:18;5.40;99.90
13251;DHT22;6692;50.710;7.180;2024-02-23T05:46:18;5.40;99.90
13251;DHT22;6692;50.710;7.180;2024-02-23T05:48:20;5.40;99.90
13251;DHT22;6692;50.710;7.180;2024-02-23T05:50:20;5.40;99.90
13251;DHT22;6692;50.710;7.180;2024-02-23T05:52:21;5.40;99.90
13251;DHT22;6692;50.710;7.180;2024-02-23T05:54:22;5.40;99.90
13251;DHT22;6692;50.710;7.180;2024-02-23T05:56:23;5.30;99.90
13251;DHT22;6692;50.710;7.180;2024-02-23T05:58:25;5.40;99.90
13251;DHT22;6692;50.710;7.180;2024-02-23T06:00:25;5.30;99.90
13251;DHT22;6692;50.710;7.180;2024-02-23T06:02:26;5.40;99.90
13251;DHT22;6692;50.710;7.180;2024-02-23T06:04:27;5.50;99.90
13251;DHT22;6692;50.710;7.180;2024-02-23T06:06:28;5.40;99.90
13251;DHT22;6692;50.710;7.180;2024-02-23T06:08:29;5.40;99.90
13251;DHT22;6692;50.710;7.180;2024-02-23T06:10:30;5.40;99.90
13251;DHT22;6692;50.710;7.180;2024-02-23T06:12:30;5.40;99.90
13251;DHT22;6692;50.710;7.180;2024-02-23T06:14:31;5.40;99.90
13251;DHT22;6692;50.710;7.180;2024-02-23T06:16:32;5.40;99.90
13251;DHT22;6692;50.710;7.180;2024-02-23T06:18:33;5.60;99.90
13251;DHT22;6692;50.710;7.180;2024-02-23T06:20:34;5.50;99.90
13251;DHT22;6692;50.710;7.180;2024-02-23T06:22:35;5.70;99.90
13251;DHT22;6692;50.710;7.180;2024-02-23T06:24:35;5.70;99.90
13251;DHT22;6692;50.710;7.180;2024-02-23T06:26:36;5.80;99.90
13251;DHT22;6692;50.710;7.180;2024-02-23T06:28:38;5.90;99.90
13251;DHT22;6692;50.710;7.180;2024-02-23T06:30:38;5.90;99.90
13251;DHT22;6692;50.710;7.180;2024-02-23T06:32:39;6.00;99.90
13251;DHT22;6692;50.710;7.180;2024-02-23T06:34:39;6.00;99.90
13251;DHT22;6692;50.710;7.180;2024-02-23T06:36:40;6.00;99.90
13251;DHT22;6692;50.710;7.180;2024-02-23T06:38:41;6.00;99.90
13251;DHT22;6692;50.710;7.180;2024-02-23T06:40:41;6.10;99.90
13251;DHT22;6692;50.710;7.180;2024-02-23T06:42:42;6.10;99.90
13251;DHT22;6692;50.710;7.180;2024-02-23T06:44:43;6.10;99.90
13251;DHT22;6692;50.710;7.180;2024-02-23T06:46:44;6.10;99.90
13251;DHT22;6692;50.710;7.180;2024-02-23T06:48:45;6.20;99.90
13251;DHT22;6692;50.710;7.180;2024-02-23T06:50:46;6.20;99.90
13251;DHT22;6692;50.710;7.180;2024-02-23T06:52:46;6.20;99.90
13251;DHT22;6692;50.710;7.180;2024-02-23T06:54:47;6.30;99.90
13251;DHT22;6692;50.710;7.180;2024-02-23T06:56:48;6.30;99.90
13251;DHT22;6692;50.710;7.180;2024-02-23T06:58:48;6.30;99.90
13251;DHT22;6692;50.710;7.180;2024-02-23T07:00:49;6.40;99.90
13251;DHT22;6692;50.710;7.180;2024-02-23T07:02:50;6.40;99.90
13251;DHT22;6692;50.710;7.180;2024-02-23T07:04:50;6.40;99.90
13251;DHT22;6692;50.710;7.180;2024-02-23T07:06:51;6.30;99.90
13251;DHT22;6692;50.710;7.180;2024-02-23T07:08:52;6.30;99.90
13251;DHT22;6692;50.710;7.180;2024-02-23T07:10:53;6.30;99.90
13251;DHT22;6692;50.710;7.180;2024-02-23T07:12:53;6.30;99.90
13251;DHT22;6692;50.710;7.180;2024-02-23T07:14:55;6.30;99.90
13251;DHT22;6692;50.710;7.180;2024-02-23T07:16:55;6.20;99.90
13251;DHT22;6692;50.710;7.180;2024-02-23T07:18:56;6.30;99.90
13251;DHT22;6692;50.710;7.180;2024-02-23T07:20:57;6.30;99.90
13251;DHT22;6692;50.710;7.180;2024-02-23T07:22:58;6.30;99.90
13251;DHT22;6692;50.710;7.180;2024-02-23T07:24:58;6.40;99.90
13251;DHT22;6692;50.710;7.180;2024-02-23T07:26:59;6.50;99.90
13251;DHT22;6692;50.710;7.180;2024-02-23T07:29:00;6.50;99.90
13251;DHT22;6692;50.710;7.180;2024-02-23T07:31:00;6.50;99.90
13251;DHT22;6692;50.710;7.180;2024-02-23T07:33:01;6.60;99.90
13251;DHT22;6692;50.710;7.180;2024-02-23T07:35:02;6.60;99.90
13251;DHT22;6692;50.710;7.180;2024-02-23T07:37:03;6.80;99.90
13251;DHT22;6692;50.710;7.180;2024-02-23T07:39:04;6.80;99.90
13251;DHT22;6692;50.710;7.180;2024-02-23T07:41:04;7.00;99.90
13251;DHT22;6692;50.710;7.180;2024-02-23T07:43:05;7.00;99.90
13251;DHT22;6692;50.710;7.180;2024-02-23T07:45:07;7.20;99.90
13251;DHT22;6692;50.710;7.180;2024-02-23T07:47:08;7.10;99.90
13251;DHT22;6692;50.710;7.180;2024-02-23T07:49:09;7.30;99.90
13251;DHT22;6692;50.710;7.180;2024-02-23T07:51:09;7.30;99.90
13251;DHT22;6692;50.710;7.180;2024-02-23T07:53:10;7.40;99.90
13251;DHT22;6692;50.710;7.180;2024-02-23T07:55:11;7.40;99.90
13251;DHT22;6692;50.710;7.180;2024-02-23T07:57:11;7.40;99.90
13251;DHT22;6692;50.710;7.180;2024-02-23T07:59:12;7.30;99.90
13251;DHT22;6692;50.710;7.180;2024-02-23T08:01:14;7.20;99.90
13251;DHT22;6692;50.710;7.180;2024-02-23T08:03:14;7.20;99.90
13251;DHT22;6692;50.710;7.180;2024-02-23T08:05:15;7.20;99.90
13251;DHT22;6692;50.710;7.180;2024-02-23T08:07:16;7.20;99.90
13251;DHT22;6692;50.710;7.180;2024-02-23T08:09:17;7.30;99.90
13251;DHT22;6692;50.710;7.180;2024-02-23T08:11:17;7.30;99.90
13251;DHT22;6692;50.710;7.180;2024-02-23T08:13:19;7.50;99.90
13251;DHT22;6692;50.710;7.180;2024-02-23T08:15:19;7.50;99.90
13251;DHT22;6692;50.710;7.180;2024-02-23T08:17:20;7.50;99.90
13251;DHT22;6692;50.710;7.180;2024-02-23T08:19:21;7.50;99.90
13251;DHT22;6692;50.710;7.180;2024-02-23T08:21:22;7.50;99.90
13251;DHT22;6692;50.710;7.180;2024-02-23T08:23:23;7.50;99.90
13251;DHT22;6692;50.710;7.180;2024-02-23T08:25:24;7.60;99.90
13251;DHT22;6692;50.710;7.180;2024-02-23T08:27:24;7.60;99.90
13251;DHT22;6692;50.710;7.180;2024-02-23T08:29:25;7.70;99.90
13251;DHT22;6692;50.710;7.180;2024-02-23T08:31:26;7.70;99.90
13251;DHT22;6692;50.710;7.180;2024-02-23T08:33:27;7.90;99.90
13251;DHT22;6692;50.710;7.180;2024-02-23T08:35:28;7.90;99.90
13251;DHT22;6692;50.710;7.180;2024-02-23T08:37:29;8.00;99.90
13251;DHT22;6692;50.710;7.180;2024-02-23T08:39:29;8.10;99.90
13251;DHT22;6692;50.710;7.180;2024-02-23T08:41:30;8.30;99.90
13251;DHT22;6692;50.710;7.180;2024-02-23T08:43:31;8.30;99.90
13251;DHT22;6692;50.710;7.180;2024-02-23T08:45:31;8.40;99.90
13251;DHT22;6692;50.710;7.180;2024-02-23T08:47:32;8.50;99.90
13251;DHT22;6692;50.710;7.180;2024-02-23T08:49:33;8.50;99.90
13251;DHT22;6692;50.710;7.180;2024-02-23T08:51:34;8.60;99.90
13251;DHT22;6692;50.710;7.180;2024-02-23T08:53:35;8.60;99.90
13251;DHT22;6692;50.710;7.180;2024-02-23T08:55:36;8.60;99.90
13251;DHT22;6692;50.710;7.180;2024-02-23T08:57:37;8.60;99.90
13251;DHT22;6692;50.710;7.180;2024-02-23T08:59:38;8.70;99.90
13251;DHT22;6692;50.710;7.180;2024-02-23T09:01:38;8.70;99.90
13251;DHT22;6692;50.710;7.180;2024-02-23T09:03:40;8.80;99.90
13251;DHT22;6692;50.710;7.180;2024-02-23T09:05:41;8.80;99.90
13251;DHT22;6692;50.710;7.180;2024-02-23T09:07:41;8.80;99.90
13251;DHT22;6692;50.710;7.180;2024-02-23T09:09:42;8.80;99.90
13251;DHT22;6692;50.710;7.180;2024-02-23T09:11:43;8.80;99.90
13251;DHT22;6692;50.710;7.180;2024-02-23T09:13:44;8.80;99.90
13251;DHT22;6692;50.710;7.180;2024-02-23T09:15:45;8.80;99.90
13251;DHT22;6692;50.710;7.180;2024-02-23T09:17:46;8.80;99.90
13251;DHT22;6692;50.710;7.180;2024-02-23T09:19:47;8.70;99.90
13251;DHT22;6692;50.710;7.180;2024-02-23T09:21:48;8.70;99.90
13251;DHT22;6692;50.710;7.180;2024-02-23T09:23:49;8.70;99.90
13251;DHT22;6692;50.710;7.180;2024-02-23T09:25:49;8.70;99.90
13251;DHT22;6692;50.710;7.180;2024-02-23T09:27:51;8.70;99.90
13251;DHT22;6692;50.710;7.180;2024-02-23T09:29:52;8.70;99.90
13251;DHT22;6692;50.710;7.180;2024-02-23T09:31:52;8.70;99.90
13251;DHT22;6692;50.710;7.180;2024-02-23T09:33:54;8.70;99.90
13251;DHT22;6692;50.710;7.180;2024-02-23T09:35:54;8.70;99.90
13251;DHT22;6692;50.710;7.180;2024-02-23T09:37:55;8.70;99.90
13251;DHT22;6692;50.710;7.180;2024-02-23T09:39:56;8.80;99.90
13251;DHT22;6692;50.710;7.180;2024-02-23T09:41:57;8.80;99.90
13251;DHT22;6692;50.710;7.180;2024-02-23T09:43:59;9.10;99.90
13251;DHT22;6692;50.710;7.180;2024-02-23T09:45:59;9.10;99.90
13251;DHT22;6692;50.710;7.180;2024-02-23T09:48:00;9.20;99.90
13251;DHT22;6692;50.710;7.180;2024-02-23T09:50:02;9.30;99.90
13251;DHT22;6692;50.710;7.180;2024-02-23T09:52:02;9.40;99.90
13251;DHT22;6692;50.710;7.180;2024-02-23T09:54:04;9.40;99.90
13251;DHT22;6692;50.710;7.180;2024-02-23T09:56:06;9.50;99.90
13251;DHT22;6692;50.710;7.180;2024-02-23T09:58:07;9.40;99.90
13251;DHT22;6692;50.710;7.180;2024-02-23T10:00:09;9.50;99.90
13251;DHT22;6692;50.710;7.180;2024-02-23T10:02:14;9.40;99.90
13251;DHT22;6692;50.710;7.180;2024-02-23T10:04:11;9.50;99.90
13251;DHT22;6692;50.710;7.180;2024-02-23T10:06:12;9.70;99.90
13251;DHT22;6692;50.710;7.180;2024-02-23T10:08:13;9.70;99.90
13251;DHT22;6692;50.710;7.180;2024-02-23T10:10:14;9.80;99.90
13251;DHT22;6692;50.710;7.180;2024-02-23T10:12:18;9.80;99.90
13251;DHT22;6692;50.710;7.180;2024-02-23T10:14:19;9.90;99.90
13251;DHT22;6692;50.710;7.180;2024-02-23T10:16:20;10.00;99.90
13251;DHT22;6692;50.710;7.180;2024-02-23T10:18:21;10.20;99.90
13251;DHT22;6692;50.710;7.180;2024-02-23T10:20:22;10.20;99.90
13251;DHT22;6692;50.710;7.180;2024-02-23T10:22:23;10.20;99.90
13251;DHT22;6692;50.710;7.180;2024-02-23T10:24:23;10.20;99.90
13251;DHT22;6692;50.710;7.180;2024-02-23T10:26:24;10.20;99.90
13251;DHT22;6692;50.710;7.180;2024-02-23T10:28:25;10.10;99.90
13251;DHT22;6692;50.710;7.180;2024-02-23T10:30:26;10.10;99.90
13251;DHT22;6692;50.710;7.180;2024-02-23T10:32:27;10.00;99.90
13251;DHT22;6692;50.710;7.180;2024-02-23T10:34:27;9.90;99.90
13251;DHT22;6692;50.710;7.180;2024-02-23T10:36:28;9.90;99.90
13251;DHT22;6692;50.710;7.180;2024-02-23T10:38:29;9.80;99.90
13251;DHT22;6692;50.710;7.180;2024-02-23T10:40:30;9.80;99.90
13251;DHT22;6692;50.710;7.180;2024-02-23T10:42:31;9.80;99.90
13251;DHT22;6692;50.710;7.180;2024-02-23T10:44:32;10.00;99.90
13251;DHT22;6692;50.710;7.180;2024-02-23T10:46:33;10.00;99.90
13251;DHT22;6692;50.710;7.180;2024-02-23T10:48:33;10.30;99.90
13251;DHT22;6692;50.710;7.180;2024-02-23T10:50:34;10.40;99.90
13251;DHT22;6692;50.710;7.180;2024-02-23T10:52:35;10.50;99.90
13251;DHT22;6692;50.710;7.180;2024-02-23T10:54:36;10.70;99.90
13251;DHT22;6692;50.710;7.180;2024-02-23T10:56:36;10.70;99.90
13251;DHT22;6692;50.710;7.180;2024-02-23T10:58:37;10.80;99.90
13251;DHT22;6692;50.710;7.180;2024-02-23T11:00:38;10.90;99.90
13251;DHT22;6692;50.710;7.180;2024-02-23T11:02:40;10.80;99.90
13251;DHT22;6692;50.710;7.180;2024-02-23T11:04:39;10.70;99.90
13251;DHT22;6692;50.710;7.180;2024-02-23T11:06:40;10.60;99.90
13251;DHT22;6692;50.710;7.180;2024-02-23T11:08:40;10.40;99.90
13251;DHT22;6692;50.710;7.180;2024-02-23T11:10:43;10.20;99.90
13251;DHT22;6692;50.710;7.180;2024-02-23T11:12:43;9.90;99.90
13251;DHT22;6692;50.710;7.180;2024-02-23T11:14:43;9.60;99.90
13251;DHT22;6692;50.710;7.180;2024-02-23T11:16:44;9.30;99.90
13251;DHT22;6692;50.710;7.180;2024-02-23T11:18:45;9.10;99.90
13251;DHT22;6692;50.710;7.180;2024-02-23T11:20:52;9.00;99.90
13251;DHT22;6692;50.710;7.180;2024-02-23T11:22:46;8.90;99.90
13251;DHT22;6692;50.710;7.180;2024-02-23T11:24:48;8.80;99.90
13251;DHT22;6692;50.710;7.180;2024-02-23T11:26:47;8.70;99.90
13251;DHT22;6692;50.710;7.180;2024-02-23T11:28:48;8.60;99.90
13251;DHT22;6692;50.710;7.180;2024-02-23T11:30:50;8.90;99.90
13251;DHT22;6692;50.710;7.180;2024-02-23T11:32:50;8.80;99.90
13251;DHT22;6692;50.710;7.180;2024-02-23T11:34:55;9.00;99.90
13251;DHT22;6692;50.710;7.180;2024-02-23T11:36:58;8.90;99.90
13251;DHT22;6692;50.710;7.180;2024-02-23T11:38:59;8.90;99.90
13251;DHT22;6692;50.710;7.180;2024-02-23T11:41:00;8.90;99.90
13251;DHT22;6692;50.710;7.180;2024-02-23T11:43:00;8.80;99.90
13251;DHT22;6692;50.710;7.180;2024-02-23T11:45:00;8.70;99.90
13251;DHT22;6692;50.710;7.180;2024-02-23T11:47:01;8.70;99.90
13251;DHT22;6692;50.710;7.180;2024-02-23T11:49:02;8.70;99.90
13251;DHT22;6692;50.710;7.180;2024-02-23T11:51:03;8.80;99.90
13251;DHT22;6692;50.710;7.180;2024-02-23T11:53:04;8.90;99.90
13251;DHT22;6692;50.710;7.180;2024-02-23T11:55:05;9.10;99.90
13251;DHT22;6692;50.710;7.180;2024-02-23T11:57:06;9.30;99.90
13251;DHT22;6692;50.710;7.180;2024-02-23T11:59:07;9.40;99.90
13251;DHT22;6692;50.710;7.180;2024-02-23T12:01:08;9.70;99.90
13251;DHT22;6692;50.710;7.180;2024-02-23T12:03:09;9.70;99.90
13251;DHT22;6692;50.710;7.180;2024-02-23T12:05:09;9.90;99.90
13251;DHT22;6692;50.710;7.180;2024-02-23T12:07:10;10.20;99.90
13251;DHT22;6692;50.710;7.180;2024-02-23T12:09:11;10.30;99.90
13251;DHT22;6692;50.710;7.180;2024-02-23T12:11:12;10.40;99.90
13251;DHT22;6692;50.710;7.180;2024-02-23T12:13:12;10.30;99.90
13251;DHT22;6692;50.710;7.180;2024-02-23T12:15:13;10.30;99.90
13251;DHT22;6692;50.710;7.180;2024-02-23T12:17:14;10.40;99.90
13251;DHT22;6692;50.710;7.180;2024-02-23T12:19:14;10.50;99.90
13251;DHT22;6692;50.710;7.180;2024-02-23T12:21:15;10.60;99.90
13251;DHT22;6692;50.710;7.180;2024-02-23T12:23:16;10.60;99.90
13251;DHT22;6692;50.710;7.180;2024-02-23T12:25:17;10.70;99.90
13251;DHT22;6692;50.710;7.180;2024-02-23T12:27:18;10.80;99.90
13251;DHT22;6692;50.710;7.180;2024-02-23T12:29:19;10.80;99.90
13251;DHT22;6692;50.710;7.180;2024-02-23T12:31:23;11.00;99.90
13251;DHT22;6692;50.710;7.180;2024-02-23T12:33:23;11.00;99.90
13251;DHT22;6692;50.710;7.180;2024-02-23T12:35:24;11.00;99.90
13251;DHT22;6692;50.710;7.180;2024-02-23T12:37:25;11.10;99.90
13251;DHT22;6692;50.710;7.180;2024-02-23T12:39:26;11.20;99.90
13251;DHT22;6692;50.710;7.180;2024-02-23T12:41:28;11.20;99.90
13251;DHT22;6692;50.710;7.180;2024-02-23T12:43:28;11.20;99.90
13251;DHT22;6692;50.710;7.180;2024-02-23T12:45:29;11.30;99.90
13251;DHT22;6692;50.710;7.180;2024-02-23T12:47:30;11.50;99.90
13251;DHT22;6692;50.710;7.180;2024-02-23T12:49:31;11.70;99.90
13251;DHT22;6692;50.710;7.180;2024-02-23T12:51:32;11.70;99.90
13251;DHT22;6692;50.710;7.180;2024-02-23T12:53:36;11.70;99.90
13251;DHT22;6692;50.710;7.180;2024-02-23T12:55:36;11.70;99.90
13251;DHT22;6692;50.710;7.180;2024-02-23T12:57:37;11.80;99.90
13251;DHT22;6692;50.710;7.180;2024-02-23T12:59:40;11.70;99.90
13251;DHT22;6692;50.710;7.180;2024-02-23T13:01:40;11.70;99.90
13251;DHT22;6692;50.710;7.180;2024-02-23T13:03:42;11.50;99.90
13251;DHT22;6692;50.710;7.180;2024-02-23T13:05:44;11.50;99.90
13251;DHT22;6692;50.710;7.180;2024-02-23T13:07:45;11.50;99.90